Time,TemperatureF,DewpointF,PressureIn,WindDirection,WindDirectionDegrees,WindSpeedMPH,WindSpeedGustMPH,Humidity,HourlyPrecipIn,Conditions,Clouds,dailyrainin,SolarRadiationWatts/m^2,SoftwareType,DateUTC
2013-05-19 00:01:00,69.4,60.0,29.63,ENE,65,8.1,8.1,72,0.00,OVC,,0.00,0.0,WeatherDisplay:10.37,2013-05-19 05:01:00,
2013-05-19 00:06:00,69.3,59.9,29.62,East,88,10.4,10.4,72,0.00,OVC,,0.00,0.0,WeatherDisplay:10.37,2013-05-19 05:06:00,
2013-05-19 00:11:00,69.2,59.8,29.62,NE,51,10.4,10.4,72,0.00,OVC,,0.00,0.0,WeatherDisplay:10.37,2013-05-19 05:11:00,
2013-05-19 00:16:00,69.1,59.7,29.61,ENE,61,6.9,6.9,72,0.00,OVC,,0.00,0.0,WeatherDisplay:10.37,2013-05-19 05:16:00,
2013-05-19 00:21:00,69.0,60.0,29.60,ENE,62,8.0,8.0,73,0.00,OVC,,0.00,0.0,WeatherDisplay:10.37,2013-05-19 05:21:00,
2013-05-19 00:26:00,68.9,59.9,29.61,ENE,73,4.6,4.6,73,0.00,OVC,,0.00,0.0,WeatherDisplay:10.37,2013-05-19 05:26:00,
2013-05-19 00:31:00,68.8,60.2,29.61,NNE,13,5.8,5.8,74,0.00,OVC,,0.00,0.0,WeatherDisplay:10.37,2013-05-19 05:31:00,
2013-05-19 00:36:00,68.7,60.1,29.59,ENE,77,6.9,6.9,74,0.00,OVC,,0.00,0.0,WeatherDisplay:10.37,2013-05-19 05:36:00,
2013-05-19 00:41:00,68.7,60.1,29.59,ENE,74,13.8,13.8,74,0.00,OVC,,0.00,0.0,WeatherDisplay:10.37,2013-05-19 05:41:00,
2013-05-19 00:46:00,68.6,60.0,29.59,East,84,6.9,6.9,74,0.00,OVC,,0.00,0.0,WeatherDisplay:10.37,2013-05-19 05:46:00,
2013-05-19 00:51:00,68.6,60.4,29.60,ENE,70,4.6,4.6,75,0.00,OVC,,0.00,0.0,WeatherDisplay:10.37,2013-05-19 05:51:00,
2013-05-19 00:56:00,68.5,60.3,29.62,ENE,65,4.6,4.6,75,0.00,OVC,,0.00,0.0,WeatherDisplay:10.37,2013-05-19 05:56:00,
2013-05-19 01:01:00,68.5,60.3,29.62,East,82,8.1,8.1,75,0.00,OVC,,0.00,0.0,WeatherDisplay:10.37,2013-05-19 06:01:00,
2013-05-19 01:06:00,68.4,60.5,29.61,NE,44,8.1,8.1,76,0.00,OVC,,0.00,0.0,WeatherDisplay:10.37,2013-05-19 06:06:00,
2013-05-19 01:11:00,68.2,60.3,29.61,ENE,72,9.2,9.2,76,0.00,OVC,,0.00,0.0,WeatherDisplay:10.37,2013-05-19 06:11:00,
2013-05-19 01:16:00,68.1,60.2,29.61,NE,42,8.1,8.1,76,0.00,OVC,,0.00,0.0,WeatherDisplay:10.37,2013-05-19 06:16:00,
2013-05-19 01:21:00,68.0,60.2,29.62,North,10,5.8,5.8,76,0.00,OVC,,0.00,0.0,WeatherDisplay:10.37,2013-05-19 06:21:00,
2013-05-19 01:26:00,67.9,60.4,29.65,WNW,283,8.1,8.1,77,0.00,OVC,,0.00,0.0,WeatherDisplay:10.37,2013-05-19 06:26:00,
2013-05-19 01:31:00,67.9,60.4,29.67,North,355,6.9,6.9,77,0.00,OVC,,0.00,0.0,WeatherDisplay:10.37,2013-05-19 06:31:00,
2013-05-19 01:36:00,67.8,60.3,29.71,West,275,19.6,19.6,77,0.00,OVC,,0.00,0.0,WeatherDisplay:10.37,2013-05-19 06:36:00,
2013-05-19 01:41:00,67.6,61.2,29.68,NNW,340,8.1,8.1,80,0.00,OVC,,0.00,0.0,WeatherDisplay:10.37,2013-05-19 06:41:00,
2013-05-19 01:46:00,67.4,61.4,29.72,WNW,283,11.5,11.5,81,0.00,OVC,,0.00,0.0,WeatherDisplay:10.37,2013-05-19 06:46:00,
2013-05-19 01:51:00,67.3,61.3,29.73,NW,324,6.9,6.9,81,0.00,OVC,,0.00,0.0,WeatherDisplay:10.37,2013-05-19 06:51:00,
2013-05-19 01:56:00,67.4,61.7,29.72,WNW,290,5.8,5.8,82,0.00,OVC,,0.00,0.0,WeatherDisplay:10.37,2013-05-19 06:56:00,
2013-05-19 02:01:00,67.4,61.7,29.72,NW,319,4.6,4.6,82,0.00,BKN,,0.00,0.0,WeatherDisplay:10.37,2013-05-19 07:01:00,
2013-05-19 02:06:00,67.5,61.8,29.71,North,360,4.6,4.6,82,0.00,BKN,,0.00,0.0,WeatherDisplay:10.37,2013-05-19 07:06:00,
2013-05-19 02:11:00,67.7,62.3,29.71,NNW,348,4.6,4.6,83,0.00,BKN,,0.00,0.0,WeatherDisplay:10.37,2013-05-19 07:11:00,
2013-05-19 02:16:00,67.7,62.3,29.70,North,5,8.0,8.0,83,0.00,BKN,,0.00,0.0,WeatherDisplay:10.37,2013-05-19 07:16:00,
2013-05-19 02:21:00,67.7,62.3,29.69,NW,306,9.2,9.2,83,0.00,BKN,,0.00,0.0,WeatherDisplay:10.37,2013-05-19 07:21:00,
2013-05-19 02:26:00,67.6,62.6,29.69,NE,38,5.8,5.8,84,0.00,BKN,,0.00,0.0,WeatherDisplay:10.37,2013-05-19 07:26:00,
2013-05-19 02:31:00,67.6,62.6,29.68,NNE,20,4.6,4.6,84,0.00,BKN,,0.00,0.0,WeatherDisplay:10.37,2013-05-19 07:31:00,
2013-05-19 02:36:00,67.6,62.6,29.67,NE,39,5.0,5.0,84,0.00,BKN,,0.00,0.0,WeatherDisplay:10.37,2013-05-19 07:36:00,
2013-05-19 02:41:00,67.6,62.6,29.68,NE,42,1.2,1.2,84,0.00,BKN,,0.00,0.0,WeatherDisplay:10.37,2013-05-19 07:41:00,
2013-05-19 02:46:00,67.5,62.5,29.68,NE,42,2.3,2.3,84,0.00,BKN,,0.00,0.0,WeatherDisplay:10.37,2013-05-19 07:46:00,
2013-05-19 02:51:00,67.5,62.5,29.68,NE,42,0.0,0.0,84,0.00,BKN,,0.00,0.0,WeatherDisplay:10.37,2013-05-19 07:51:00,
2013-05-19 02:56:00,67.4,62.4,29.68,SSE,151,2.3,2.3,84,0.00,BKN,,0.00,0.0,WeatherDisplay:10.37,2013-05-19 07:56:00,
2013-05-19 03:01:00,67.4,62.7,29.68,SSE,151,0.0,0.0,85,0.00,BKN,,0.00,0.0,WeatherDisplay:10.37,2013-05-19 08:01:00,
2013-05-19 03:06:00,67.3,63.0,29.68,SSE,151,0.0,0.0,86,0.00,BKN,,0.00,0.0,WeatherDisplay:10.37,2013-05-19 08:06:00,
2013-05-19 03:11:00,67.2,63.2,29.69,South,181,3.5,3.5,87,0.00,OVC,,0.00,0.0,WeatherDisplay:10.37,2013-05-19 08:11:00,
2013-05-19 03:16:00,67.1,63.4,29.69,South,180,2.3,2.3,88,0.00,OVC,,0.00,0.0,WeatherDisplay:10.37,2013-05-19 08:16:00,
2013-05-19 03:21:00,67.0,63.3,29.70,South,187,3.5,3.5,88,0.01,RA,,0.01,0.0,WeatherDisplay:10.37,2013-05-19 08:21:00,
2013-05-19 03:26:00,66.8,63.5,29.70,SSE,166,4.6,4.6,89,0.01,OVC,,0.02,0.0,WeatherDisplay:10.37,2013-05-19 08:26:00,
2013-05-19 03:31:00,66.6,63.3,29.71,SSE,165,3.5,3.5,89,0.02,RA,,0.02,0.0,WeatherDisplay:10.37,2013-05-19 08:31:00,
2013-05-19 03:36:00,66.4,63.4,29.72,SSW,209,3.5,3.5,90,0.04,RA,,0.04,0.0,WeatherDisplay:10.37,2013-05-19 08:36:00,
2013-05-19 03:41:00,66.2,63.5,29.72,South,180,4.6,4.6,91,0.05,RA,,0.05,0.0,WeatherDisplay:10.37,2013-05-19 08:41:00,
2013-05-19 03:46:00,66.0,63.3,29.71,SSE,165,5.8,5.8,91,0.07,RA,,0.07,0.0,WeatherDisplay:10.37,2013-05-19 08:46:00,
2013-05-19 03:51:00,65.8,63.4,29.71,SE,146,1.2,1.2,92,0.08,RA,,0.08,0.0,WeatherDisplay:10.37,2013-05-19 08:51:00,
2013-05-19 03:56:00,65.6,63.2,29.70,SSW,203,0.0,0.0,92,0.09,RA,,0.09,0.0,WeatherDisplay:10.37,2013-05-19 08:56:00,
2013-05-19 04:01:00,65.4,63.3,29.70,SE,144,2.3,2.3,93,0.11,RA,,0.11,0.0,WeatherDisplay:10.37,2013-05-19 09:01:00,
2013-05-19 04:06:00,65.2,63.1,29.71,SSE,151,0.0,0.0,93,0.12,RA,,0.12,0.0,WeatherDisplay:10.37,2013-05-19 09:06:00,
2013-05-19 04:11:00,65.0,62.9,29.71,SSE,151,0.0,0.0,93,0.13,RA,,0.13,0.0,WeatherDisplay:10.37,2013-05-19 09:11:00,
2013-05-19 04:16:00,64.9,62.8,29.71,SSE,150,0.0,0.0,93,0.15,RA,,0.15,0.0,WeatherDisplay:10.37,2013-05-19 09:16:00,
2013-05-19 04:21:00,64.9,63.1,29.70,SSE,150,0.0,0.0,94,0.15,RA,,0.16,0.0,WeatherDisplay:10.37,2013-05-19 09:21:00,
2013-05-19 04:26:00,64.8,63.0,29.69,SSE,150,0.0,0.0,94,0.17,RA,,0.18,0.0,WeatherDisplay:10.37,2013-05-19 09:26:00,
2013-05-19 04:31:00,64.7,62.9,29.68,SSE,150,0.0,0.0,94,0.17,RA,,0.19,0.0,WeatherDisplay:10.37,2013-05-19 09:31:00,
2013-05-19 04:36:00,64.5,62.7,29.68,SSE,150,0.0,0.0,94,0.16,RA,,0.20,0.0,WeatherDisplay:10.37,2013-05-19 09:36:00,
2013-05-19 04:41:00,64.4,62.9,29.67,SSE,150,1.2,0.0,95,0.15,OVC,,0.20,0.0,WeatherDisplay:10.37,2013-05-19 09:41:00,
2013-05-19 04:46:00,64.3,62.8,29.69,SSE,150,0.0,0.0,95,0.13,OVC,,0.20,0.0,WeatherDisplay:10.37,2013-05-19 09:46:00,
2013-05-19 04:51:00,64.3,62.8,29.69,SSE,150,0.0,0.0,95,0.12,OVC,,0.20,0.0,WeatherDisplay:10.37,2013-05-19 09:51:00,
2013-05-19 04:56:00,64.1,62.6,29.69,SSE,150,0.0,0.0,95,0.11,OVC,,0.21,0.0,WeatherDisplay:10.37,2013-05-19 09:56:00,
2013-05-19 05:01:00,64.1,62.6,29.68,SSE,150,0.0,0.0,95,0.10,RA,,0.21,0.0,WeatherDisplay:10.37,2013-05-19 10:01:00,
2013-05-19 05:06:00,64.1,62.6,29.66,SSE,150,0.0,0.0,95,0.09,OVC,,0.21,0.0,WeatherDisplay:10.37,2013-05-19 10:06:00,
2013-05-19 05:11:00,64.1,62.9,29.65,North,360,3.5,3.5,96,0.08,OVC,,0.21,0.0,WeatherDisplay:10.37,2013-05-19 10:11:00,
2013-05-19 05:16:00,64.1,62.9,29.65,North,355,3.5,3.5,96,0.06,OVC,,0.21,0.0,WeatherDisplay:10.37,2013-05-19 10:16:00,
2013-05-19 05:21:00,64.1,62.9,29.66,NNW,346,2.3,2.3,96,0.05,OVC,,0.21,0.0,WeatherDisplay:10.37,2013-05-19 10:21:00,
2013-05-19 05:26:00,64.0,62.8,29.68,West,267,3.5,3.5,96,0.03,OVC,,0.21,0.0,WeatherDisplay:10.37,2013-05-19 10:26:00,
2013-05-19 05:31:00,64.0,62.8,29.66,NNW,343,5.0,5.0,96,0.02,OVC,,0.22,0.0,WeatherDisplay:10.37,2013-05-19 10:31:00,
2013-05-19 05:36:00,63.8,62.6,29.66,NW,320,6.9,6.9,96,0.03,RA,,0.23,0.0,WeatherDisplay:10.37,2013-05-19 10:36:00,
2013-05-19 05:41:00,63.7,62.2,29.66,NNW,338,3.5,3.5,95,0.03,OVC,,0.23,0.0,WeatherDisplay:10.37,2013-05-19 10:41:00,
2013-05-19 05:46:00,63.6,62.1,29.64,NE,34,3.5,3.5,95,0.03,OVC,,0.23,0.0,WeatherDisplay:10.37,2013-05-19 10:46:00,
2013-05-19 05:51:00,63.5,61.7,29.63,ENE,63,6.9,6.9,94,0.03,OVC,,0.23,0.0,WeatherDisplay:10.37,2013-05-19 10:51:00,
2013-05-19 05:56:00,63.4,61.6,29.63,ENE,71,3.5,3.5,94,0.03,OVC,,0.23,0.0,WeatherDisplay:10.37,2013-05-19 10:56:00,
2013-05-19 06:01:00,63.4,61.6,29.63,ENE,57,2.3,2.3,94,0.02,BKN,,0.23,0.0,WeatherDisplay:10.37,2013-05-19 11:01:00,
2013-05-19 06:06:00,63.4,61.3,29.62,NNE,16,4.6,4.6,93,0.02,BKN,,0.23,0.0,WeatherDisplay:10.37,2013-05-19 11:06:00,
2013-05-19 06:11:00,63.2,61.1,29.62,NE,42,4.6,4.6,93,0.02,BKN,,0.23,0.0,WeatherDisplay:10.37,2013-05-19 11:11:00,
2013-05-19 06:16:00,63.1,60.7,29.62,NE,51,3.5,3.5,92,0.02,BKN,,0.23,0.0,WeatherDisplay:10.37,2013-05-19 11:16:00,
2013-05-19 06:21:00,63.1,60.7,29.62,ENE,75,5.8,5.8,92,0.02,BKN,,0.23,0.0,WeatherDisplay:10.37,2013-05-19 11:21:00,
2013-05-19 06:26:00,63.1,60.4,29.61,NE,48,5.8,5.8,91,0.02,BKN,,0.23,0.0,WeatherDisplay:10.37,2013-05-19 11:26:00,
2013-05-19 06:31:00,63.1,60.4,29.61,ENE,61,4.6,4.6,91,0.02,BKN,,0.23,5.0,WeatherDisplay:10.37,2013-05-19 11:31:00,
2013-05-19 06:36:00,63.1,60.1,29.61,ENE,58,2.3,2.3,90,0.00,BKN,,0.23,9.0,WeatherDisplay:10.37,2013-05-19 11:36:00,
2013-05-19 06:41:00,63.2,60.2,29.61,ENE,65,2.3,2.3,90,0.00,BKN,,0.23,12.0,WeatherDisplay:10.37,2013-05-19 11:41:00,
2013-05-19 06:46:00,63.2,60.2,29.62,ENE,69,2.3,2.3,90,0.00,BKN,,0.23,14.0,WeatherDisplay:10.37,2013-05-19 11:46:00,
2013-05-19 06:51:00,63.1,60.4,29.62,ENE,69,1.2,0.0,91,0.00,BKN,,0.23,14.0,WeatherDisplay:10.37,2013-05-19 11:51:00,
2013-05-19 06:56:00,62.9,60.5,29.60,East,97,2.3,2.3,92,0.00,BKN,,0.23,14.0,WeatherDisplay:10.37,2013-05-19 11:56:00,
2013-05-19 07:01:00,62.9,60.5,29.60,East,96,5.8,5.8,92,0.00,OVC,,0.23,16.0,WeatherDisplay:10.37,2013-05-19 12:01:00,
2013-05-19 07:06:00,62.9,60.5,29.59,East,93,3.5,3.5,92,0.00,OVC,,0.23,19.0,WeatherDisplay:10.37,2013-05-19 12:06:00,
2013-05-19 07:11:00,63.0,60.6,29.60,East,92,3.5,3.5,92,0.00,OVC,,0.23,23.0,WeatherDisplay:10.37,2013-05-19 12:11:00,
2013-05-19 07:16:00,63.2,60.5,29.59,East,92,2.3,2.3,91,0.00,OVC,,0.23,33.0,WeatherDisplay:10.37,2013-05-19 12:16:00,
2013-05-19 07:21:00,63.2,60.5,29.59,ESE,109,4.6,4.6,91,0.00,OVC,,0.23,30.0,WeatherDisplay:10.37,2013-05-19 12:21:00,
2013-05-19 07:26:00,63.3,60.3,29.60,ESE,104,4.6,4.6,90,0.00,OVC,,0.23,30.0,WeatherDisplay:10.37,2013-05-19 12:26:00,
2013-05-19 07:31:00,63.4,60.1,29.59,East,100,4.6,4.6,89,0.00,OVC,,0.23,35.0,WeatherDisplay:10.37,2013-05-19 12:31:00,
2013-05-19 07:36:00,63.6,60.0,29.59,East,101,5.8,5.8,88,0.00,OVC,,0.23,49.0,WeatherDisplay:10.37,2013-05-19 12:36:00,
2013-05-19 07:41:00,64.0,60.4,29.59,ESE,111,3.5,3.5,88,0.00,OVC,,0.23,42.0,WeatherDisplay:10.37,2013-05-19 12:41:00,
2013-05-19 07:46:00,64.3,60.3,29.59,East,101,3.5,3.5,87,0.00,OVC,,0.23,62.0,WeatherDisplay:10.37,2013-05-19 12:46:00,
2013-05-19 07:51:00,64.6,60.6,29.59,ESE,116,3.5,3.5,87,0.00,OVC,,0.23,70.0,WeatherDisplay:10.37,2013-05-19 12:51:00,
2013-05-19 07:56:00,64.9,60.9,29.59,ESE,115,6.9,6.9,87,0.00,OVC,,0.23,84.0,WeatherDisplay:10.37,2013-05-19 12:56:00,
2013-05-19 08:01:00,65.3,61.0,29.59,East,88,9.2,9.2,86,0.00,SCT,,0.23,60.0,WeatherDisplay:10.37,2013-05-19 13:01:00,
2013-05-19 08:06:00,65.6,61.3,29.59,SSE,147,3.5,3.5,86,0.00,SCT,,0.23,60.0,WeatherDisplay:10.37,2013-05-19 13:06:00,
2013-05-19 08:11:00,65.9,60.9,29.59,East,100,5.8,5.8,84,0.00,SCT,,0.23,67.0,WeatherDisplay:10.37,2013-05-19 13:11:00,
2013-05-19 08:16:00,66.3,61.3,29.60,SE,129,4.6,4.6,84,0.00,SCT,,0.23,65.0,WeatherDisplay:10.37,2013-05-19 13:16:00,
2013-05-19 08:21:00,66.6,61.6,29.60,SE,130,6.9,6.9,84,0.00,SCT,,0.23,69.0,WeatherDisplay:10.37,2013-05-19 13:21:00,
2013-05-19 08:26:00,66.9,61.6,29.60,East,101,9.2,9.2,83,0.00,SCT,,0.23,72.0,WeatherDisplay:10.37,2013-05-19 13:26:00,
2013-05-19 08:31:00,67.3,61.6,29.60,ESE,107,3.5,3.5,82,0.00,SCT,,0.23,102.0,WeatherDisplay:10.37,2013-05-19 13:31:00,
2013-05-19 08:36:00,67.7,61.7,29.60,SE,137,2.3,2.3,81,0.00,SCT,,0.23,83.0,WeatherDisplay:10.37,2013-05-19 13:36:00,
2013-05-19 08:41:00,68.1,62.0,29.60,SSE,153,6.9,6.9,81,0.00,SCT,,0.23,185.0,WeatherDisplay:10.37,2013-05-19 13:41:00,
2013-05-19 08:46:00,68.5,62.4,29.60,East,92,4.6,4.6,81,0.00,SCT,,0.23,135.0,WeatherDisplay:10.37,2013-05-19 13:46:00,
2013-05-19 08:51:00,68.9,61.8,29.59,ESE,106,5.8,5.8,78,0.00,SCT,,0.23,185.0,WeatherDisplay:10.37,2013-05-19 13:51:00,
2013-05-19 08:56:00,69.4,61.9,29.60,SSE,149,4.6,4.6,77,0.00,SCT,,0.23,98.0,WeatherDisplay:10.37,2013-05-19 13:56:00,
2013-05-19 09:01:00,69.9,62.0,29.60,ESE,111,5.0,5.0,76,0.00,SCT,,0.23,360.0,WeatherDisplay:10.37,2013-05-19 14:01:00,
2013-05-19 09:06:00,70.4,61.7,29.60,East,93,6.9,6.9,74,0.00,SCT,,0.23,204.0,WeatherDisplay:10.37,2013-05-19 14:06:00,
2013-05-19 09:11:00,71.1,62.0,29.60,ESE,121,10.4,10.4,73,0.00,SCT,,0.23,244.0,WeatherDisplay:10.37,2013-05-19 14:11:00,
2013-05-19 09:16:00,71.6,61.7,29.60,ESE,113,5.8,5.8,71,0.00,SCT,,0.23,204.0,WeatherDisplay:10.37,2013-05-19 14:16:00,
2013-05-19 09:21:00,72.1,61.8,29.60,ESE,117,8.1,8.1,70,0.00,SCT,,0.23,176.0,WeatherDisplay:10.37,2013-05-19 14:21:00,
2013-05-19 09:26:00,72.6,61.8,29.60,SE,142,5.8,5.8,69,0.00,SCT,,0.23,220.0,WeatherDisplay:10.37,2013-05-19 14:26:00,
2013-05-19 09:31:00,73.0,62.2,29.60,ENE,74,8.0,8.0,69,0.00,SCT,,0.23,142.0,WeatherDisplay:10.37,2013-05-19 14:31:00,
2013-05-19 09:36:00,73.3,62.1,29.59,ESE,118,4.6,4.6,68,0.00,SCT,,0.23,378.0,WeatherDisplay:10.37,2013-05-19 14:36:00,
2013-05-19 09:41:00,73.6,61.5,29.59,East,99,6.9,6.9,66,0.00,SCT,,0.23,313.0,WeatherDisplay:10.37,2013-05-19 14:41:00,
2013-05-19 09:46:00,73.9,62.2,29.59,ESE,119,9.2,9.2,67,0.00,SCT,,0.23,274.0,WeatherDisplay:10.37,2013-05-19 14:46:00,
2013-05-19 09:51:00,74.0,62.3,29.58,East,81,13.8,13.8,67,0.00,SCT,,0.23,399.0,WeatherDisplay:10.37,2013-05-19 14:51:00,
2013-05-19 09:56:00,74.2,64.2,29.59,ESE,106,8.1,8.1,71,0.00,SCT,,0.23,221.0,WeatherDisplay:10.37,2013-05-19 14:56:00,
2013-05-19 10:01:00,74.4,64.4,29.58,SE,136,11.5,11.5,71,0.00,BKN,,0.23,214.0,WeatherDisplay:10.37,2013-05-19 15:01:00,
2013-05-19 10:06:00,74.5,64.9,29.58,ESE,108,10.4,10.4,72,0.00,BKN,,0.23,209.0,WeatherDisplay:10.37,2013-05-19 15:06:00,
2013-05-19 10:11:00,74.6,65.8,29.58,East,98,8.1,8.1,74,0.00,BKN,,0.23,225.0,WeatherDisplay:10.37,2013-05-19 15:11:00,
2013-05-19 10:16:00,74.6,66.1,29.58,SE,146,8.1,8.1,75,0.00,BKN,,0.23,323.0,WeatherDisplay:10.37,2013-05-19 15:16:00,
2013-05-19 10:21:00,74.6,66.9,29.58,SSW,194,8.1,8.1,77,0.00,BKN,,0.23,359.0,WeatherDisplay:10.37,2013-05-19 15:21:00,
2013-05-19 10:26:00,74.5,67.2,29.58,SE,126,9.2,9.2,78,0.00,BKN,,0.23,327.0,WeatherDisplay:10.37,2013-05-19 15:26:00,
2013-05-19 10:31:00,74.4,67.1,29.58,South,188,6.9,6.9,78,0.00,BKN,,0.23,243.0,WeatherDisplay:10.37,2013-05-19 15:31:00,
2013-05-19 10:36:00,74.2,66.9,29.58,ESE,111,6.9,6.9,78,0.00,BKN,,0.23,283.0,WeatherDisplay:10.37,2013-05-19 15:36:00,
2013-05-19 10:41:00,74.1,67.2,29.58,SE,127,11.5,11.5,79,0.00,BKN,,0.23,265.0,WeatherDisplay:10.37,2013-05-19 15:41:00,
2013-05-19 10:46:00,73.8,67.6,29.58,SSE,161,10.4,10.4,81,0.00,BKN,,0.23,165.0,WeatherDisplay:10.37,2013-05-19 15:46:00,
2013-05-19 10:51:00,73.6,67.4,29.58,ESE,123,8.0,8.0,81,0.00,BKN,,0.23,234.0,WeatherDisplay:10.37,2013-05-19 15:51:00,
2013-05-19 10:56:00,73.4,67.2,29.58,SE,132,12.7,12.7,81,0.00,BKN,,0.23,262.0,WeatherDisplay:10.37,2013-05-19 15:56:00,
2013-05-19 11:01:00,73.4,67.2,29.58,South,190,5.8,5.8,81,0.00,OVC,,0.23,137.0,WeatherDisplay:10.37,2013-05-19 16:01:00,
2013-05-19 11:06:00,73.3,67.5,29.58,East,97,13.8,13.8,82,0.00,OVC,,0.23,186.0,WeatherDisplay:10.37,2013-05-19 16:06:00,
2013-05-19 11:11:00,73.3,67.8,29.58,ESE,113,9.2,9.2,83,0.00,OVC,,0.23,211.0,WeatherDisplay:10.37,2013-05-19 16:11:00,
2013-05-19 11:16:00,73.2,67.7,29.58,SSW,194,8.0,8.0,83,0.00,OVC,,0.23,302.0,WeatherDisplay:10.37,2013-05-19 16:16:00,
2013-05-19 11:21:00,73.3,67.8,29.58,SE,140,12.7,12.7,83,0.00,OVC,,0.23,290.0,WeatherDisplay:10.37,2013-05-19 16:21:00,
2013-05-19 11:26:00,73.4,67.9,29.58,SSE,167,9.2,9.2,83,0.00,OVC,,0.23,199.0,WeatherDisplay:10.37,2013-05-19 16:26:00,
2013-05-19 11:31:00,73.5,68.0,29.58,South,187,10.4,10.4,83,0.00,OVC,,0.23,216.0,WeatherDisplay:10.37,2013-05-19 16:31:00,
2013-05-19 11:36:00,73.8,68.3,29.57,SE,138,6.9,6.9,83,0.00,OVC,,0.23,390.0,WeatherDisplay:10.37,2013-05-19 16:36:00,
2013-05-19 11:41:00,74.2,68.7,29.57,South,188,4.6,4.6,83,0.00,OVC,,0.23,336.0,WeatherDisplay:10.37,2013-05-19 16:41:00,
2013-05-19 11:46:00,74.6,68.7,29.57,ESE,107,13.8,13.8,82,0.00,OVC,,0.23,332.0,WeatherDisplay:10.37,2013-05-19 16:46:00,
2013-05-19 11:51:00,74.6,68.4,29.57,SSE,147,16.1,16.1,81,0.00,OVC,,0.23,264.0,WeatherDisplay:10.37,2013-05-19 16:51:00,
2013-05-19 11:56:00,74.6,68.4,29.57,SE,138,11.5,11.5,81,0.00,OVC,,0.23,330.0,WeatherDisplay:10.37,2013-05-19 16:56:00,
2013-05-19 12:01:00,74.7,68.5,29.57,ESE,122,11.5,11.5,81,0.00,OVC,,0.23,359.0,WeatherDisplay:10.37,2013-05-19 17:01:00,
2013-05-19 12:06:00,74.9,68.7,29.56,South,186,12.7,12.7,81,0.00,OVC,,0.23,295.0,WeatherDisplay:10.37,2013-05-19 17:06:00,
2013-05-19 12:11:00,75.3,69.1,29.56,SE,146,11.5,11.5,81,0.00,OVC,,0.23,329.0,WeatherDisplay:10.37,2013-05-19 17:11:00,
2013-05-19 12:16:00,75.6,69.4,29.56,SE,134,6.0,6.0,81,0.00,OVC,,0.23,295.0,WeatherDisplay:10.37,2013-05-19 17:16:00,
2013-05-19 12:21:00,76.0,69.0,29.55,East,88,11.5,11.5,79,0.00,OVC,,0.23,322.0,WeatherDisplay:10.37,2013-05-19 17:21:00,
2013-05-19 12:26:00,76.4,69.8,29.56,SE,144,11.5,11.5,80,0.00,OVC,,0.23,877.0,WeatherDisplay:10.37,2013-05-19 17:26:00,
2013-05-19 12:31:00,77.0,70.0,29.55,SSW,213,8.1,8.1,79,0.00,OVC,,0.23,334.0,WeatherDisplay:10.37,2013-05-19 17:31:00,
2013-05-19 12:36:00,77.4,69.6,29.55,South,170,8.1,8.1,77,0.00,OVC,,0.23,276.0,WeatherDisplay:10.37,2013-05-19 17:36:00,
2013-05-19 12:41:00,77.6,69.8,29.55,ESE,109,11.5,11.5,77,0.00,OVC,,0.23,311.0,WeatherDisplay:10.37,2013-05-19 17:41:00,
2013-05-19 12:46:00,77.9,70.1,29.54,ESE,115,13.8,13.8,77,0.00,OVC,,0.23,930.0,WeatherDisplay:10.37,2013-05-19 17:46:00,
2013-05-19 12:51:00,78.2,69.2,29.54,South,188,11.5,11.5,74,0.00,OVC,,0.23,320.0,WeatherDisplay:10.37,2013-05-19 17:51:00,
2013-05-19 12:56:00,78.4,69.8,29.54,SE,139,8.1,8.1,75,0.00,OVC,,0.23,320.0,WeatherDisplay:10.37,2013-05-19 17:56:00,
2013-05-19 13:01:00,78.4,69.4,29.53,South,180,8.1,8.1,74,0.00,BKN,,0.23,302.0,WeatherDisplay:10.37,2013-05-19 18:01:00,
2013-05-19 13:06:00,78.7,69.7,29.53,SE,128,9.2,9.2,74,0.00,BKN,,0.23,367.0,WeatherDisplay:10.37,2013-05-19 18:06:00,
2013-05-19 13:11:00,78.9,70.7,29.53,South,169,11.5,11.5,76,0.00,BKN,,0.23,1048.0,WeatherDisplay:10.37,2013-05-19 18:11:00,
2013-05-19 13:16:00,79.4,70.4,29.53,ESE,109,6.9,6.9,74,0.00,BKN,,0.23,475.0,WeatherDisplay:10.37,2013-05-19 18:16:00,
2013-05-19 13:21:00,79.7,69.5,29.53,ENE,64,11.0,11.0,71,0.00,BKN,,0.23,475.0,WeatherDisplay:10.37,2013-05-19 18:21:00,
2013-05-19 13:26:00,79.6,69.4,29.53,ESE,112,11.5,11.5,71,0.00,BKN,,0.23,411.0,WeatherDisplay:10.37,2013-05-19 18:26:00,
2013-05-19 13:31:00,79.8,69.6,29.53,SSW,213,13.8,13.8,71,0.00,BKN,,0.23,1113.0,WeatherDisplay:10.37,2013-05-19 18:31:00,
2013-05-19 13:36:00,80.4,70.5,29.53,SSW,194,11.5,11.5,72,0.00,BKN,,0.23,411.0,WeatherDisplay:10.37,2013-05-19 18:36:00,
2013-05-19 13:41:00,80.6,70.3,29.53,ESE,109,11.5,11.5,71,0.00,BKN,,0.23,327.0,WeatherDisplay:10.37,2013-05-19 18:41:00,
2013-05-19 13:46:00,80.9,71.0,29.53,SSE,168,9.2,9.2,72,0.00,BKN,,0.23,1176.0,WeatherDisplay:10.37,2013-05-19 18:46:00,
2013-05-19 13:51:00,81.4,71.1,29.53,SE,143,12.0,12.0,71,0.00,BKN,,0.23,1055.0,WeatherDisplay:10.37,2013-05-19 18:51:00,
2013-05-19 13:56:00,81.6,70.9,29.53,SE,138,8.0,8.0,70,0.00,BKN,,0.23,1055.0,WeatherDisplay:10.37,2013-05-19 18:56:00,
2013-05-19 14:01:00,81.6,70.9,29.53,SE,140,8.1,8.1,70,0.00,BKN,,0.23,306.0,WeatherDisplay:10.37,2013-05-19 19:01:00,
2013-05-19 14:06:00,81.9,70.7,29.53,South,175,11.0,11.0,69,0.00,BKN,,0.23,306.0,WeatherDisplay:10.37,2013-05-19 19:06:00,
2013-05-19 14:11:00,82.2,70.6,29.53,SSE,164,16.1,16.1,68,0.00,BKN,,0.23,325.0,WeatherDisplay:10.37,2013-05-19 19:11:00,
2013-05-19 14:16:00,82.2,70.6,29.53,South,181,10.4,10.4,68,0.00,BKN,,0.23,446.0,WeatherDisplay:10.37,2013-05-19 19:16:00,
2013-05-19 14:21:00,81.9,70.3,29.53,South,176,11.5,11.5,68,0.00,BKN,,0.23,271.0,WeatherDisplay:10.37,2013-05-19 19:21:00,
2013-05-19 14:26:00,81.6,70.9,29.53,SSW,194,12.7,12.7,70,0.00,BKN,,0.23,1051.0,WeatherDisplay:10.37,2013-05-19 19:26:00,
2013-05-19 14:31:00,81.6,70.9,29.52,WSW,254,6.9,6.9,70,0.00,BKN,,0.23,163.0,WeatherDisplay:10.37,2013-05-19 19:31:00,
2013-05-19 14:36:00,81.4,70.2,29.52,SSE,168,9.2,9.2,69,0.00,BKN,,0.23,109.0,WeatherDisplay:10.37,2013-05-19 19:36:00,
2013-05-19 14:41:00,81.1,70.0,29.51,SW,232,8.1,8.1,69,0.00,BKN,,0.23,100.0,WeatherDisplay:10.37,2013-05-19 19:41:00,
2013-05-19 14:46:00,80.8,70.1,29.51,SE,140,6.9,6.9,70,0.00,BKN,,0.23,67.0,WeatherDisplay:10.37,2013-05-19 19:46:00,
2013-05-19 14:51:00,80.5,69.8,29.50,SE,136,8.1,8.1,70,0.00,BKN,,0.23,40.0,WeatherDisplay:10.37,2013-05-19 19:51:00,
2013-05-19 14:56:00,80.1,69.4,29.50,South,189,3.5,3.5,70,0.00,BKN,,0.23,25.0,WeatherDisplay:10.37,2013-05-19 19:56:00,
2013-05-19 15:01:00,79.8,69.6,29.49,SE,136,0.0,0.0,71,0.00,OVC,,0.23,25.0,WeatherDisplay:10.37,2013-05-19 20:01:00,
2013-05-19 15:06:00,79.5,69.7,29.48,SE,144,1.2,1.3,72,0.00,OVC,,0.23,12.0,WeatherDisplay:10.37,2013-05-19 20:06:00,
2013-05-19 15:11:00,79.3,69.5,29.48,SE,142,3.5,3.5,72,0.00,OVC,,0.23,12.0,WeatherDisplay:10.37,2013-05-19 20:11:00,
2013-05-19 15:16:00,79.0,70.0,29.47,SE,142,1.2,1.2,74,0.01,RA,,0.24,11.0,WeatherDisplay:10.37,2013-05-19 20:16:00,
2013-05-19 15:21:00,78.6,70.4,29.47,ESE,120,0.0,0.0,76,0.01,BKN,,0.25,5.0,WeatherDisplay:10.37,2013-05-19 20:21:00,
2013-05-19 15:26:00,78.0,72.1,29.47,NNW,338,3.5,3.5,82,0.10,RA,,0.35,0.0,WeatherDisplay:10.37,2013-05-19 20:26:00,
2013-05-19 15:31:00,76.8,71.6,29.48,NNW,344,3.5,3.5,84,0.26,RA,,0.52,0.0,WeatherDisplay:10.37,2013-05-19 20:31:00,
2013-05-19 15:35:00,81.4,70.2,29.52,NNW,344,3.0,10.0,69,0.51,RA,,0.51,107.0,WeatherDisplay:10.37,2013-05-19 20:35:00,
2013-05-19 15:45:00,81.1,70.4,29.51,SSW,200,2.0,8.0,70,0.51,OVC,,0.51,113.0,WeatherDisplay:10.37,2013-05-19 20:45:00,
2013-05-19 15:50:00,80.8,69.7,29.50,South,180,3.0,10.0,69,0.00,OVC,,0.51,73.0,WeatherDisplay:10.37,2013-05-19 20:50:00,
2013-05-19 15:55:00,80.4,69.7,29.50,South,169,3.0,8.0,70,0.00,OVC,,0.51,49.0,WeatherDisplay:10.37,2013-05-19 20:55:00,
2013-05-19 16:00:00,80.1,69.4,29.50,SSE,158,2.0,7.0,70,0.00,OVC,,0.51,26.0,WeatherDisplay:10.37,2013-05-19 21:00:00,
2013-05-19 16:05:00,79.8,69.6,29.49,SSE,158,0.0,4.0,71,0.00,OVC,,0.51,25.0,WeatherDisplay:10.37,2013-05-19 21:05:00,
2013-05-19 16:10:00,79.5,69.7,29.48,SSE,147,1.0,3.0,72,0.00,OVC,,0.51,14.0,WeatherDisplay:10.37,2013-05-19 21:10:00,
2013-05-19 16:15:00,79.2,69.4,29.48,SE,135,0.0,4.0,72,0.00,OVC,,0.51,12.0,WeatherDisplay:10.37,2013-05-19 21:15:00,
2013-05-19 16:20:00,79.0,70.0,29.47,SE,135,0.0,2.0,74,0.01,RA,,0.52,11.0,WeatherDisplay:10.37,2013-05-19 21:20:00,
2013-05-19 16:25:00,64.3,62.2,29.50,East,98,16.0,16.0,93,0.82,RA,,0.91,0.0,WeatherDisplay:10.37,2013-05-19 21:25:00,
2013-05-19 16:30:00,63.4,60.4,29.50,SSE,157,11.5,11.5,90,0.50,RA,,1.02,18.0,WeatherDisplay:10.37,2013-05-19 21:30:00,
2013-05-19 16:35:00,63.2,61.1,29.50,East,101,13.8,13.8,93,0.51,RA,,1.02,33.0,WeatherDisplay:10.37,2013-05-19 21:35:00,
2013-05-19 16:40:00,63.0,60.9,29.48,SE,129,3.0,3.0,93,0.51,OVC,,1.02,39.0,WeatherDisplay:10.37,2013-05-19 21:40:00,
2013-05-19 16:45:00,62.8,61.0,29.46,ESE,107,3.5,3.5,94,0.51,BKN,,1.02,35.0,WeatherDisplay:10.37,2013-05-19 21:45:00,
2013-05-19 16:50:00,62.7,60.9,29.45,SSW,213,2.3,2.3,94,0.51,BKN,,1.02,30.0,WeatherDisplay:10.37,2013-05-19 21:50:00,
2013-05-19 16:55:00,62.8,61.0,29.46,WSW,239,2.3,2.3,94,0.51,BKN,,1.02,32.0,WeatherDisplay:10.37,2013-05-19 21:55:00,
2013-05-19 17:00:00,62.7,61.2,29.46,South,177,2.3,2.3,95,0.51,BKN,,1.02,32.0,WeatherDisplay:10.37,2013-05-19 22:00:00,
2013-05-19 17:05:00,62.8,61.3,29.47,South,177,1.0,1.0,95,0.51,BKN,,1.02,33.0,WeatherDisplay:10.37,2013-05-19 22:05:00,
2013-05-19 17:10:00,62.7,61.2,29.47,South,177,0.0,0.2,95,0.50,BKN,,1.02,35.0,WeatherDisplay:10.37,2013-05-19 22:10:00,
2013-05-19 17:15:00,62.8,61.6,29.48,East,94,2.3,2.3,96,0.48,BKN,,1.02,40.0,WeatherDisplay:10.37,2013-05-19 22:15:00,
2013-05-19 17:20:00,62.9,61.4,29.49,East,94,2.3,2.3,95,0.38,BKN,,1.02,49.0,WeatherDisplay:10.37,2013-05-19 22:20:00,
2013-05-19 17:25:00,63.0,61.8,29.50,East,94,2.3,2.3,96,0.20,BKN,,1.02,58.0,WeatherDisplay:10.37,2013-05-19 22:25:00,
2013-05-19 17:30:00,63.2,62.0,29.50,East,94,2.3,2.3,96,0.01,BKN,,1.02,51.0,WeatherDisplay:10.37,2013-05-19 22:30:00,
2013-05-19 17:35:00,63.2,62.0,29.50,ENE,78,3.5,3.5,96,0.00,BKN,,1.02,44.0,WeatherDisplay:10.37,2013-05-19 22:35:00,
2013-05-19 17:40:00,63.3,61.8,29.50,East,92,1.2,1.2,95,0.00,BKN,,1.02,49.0,WeatherDisplay:10.37,2013-05-19 22:40:00,
2013-05-19 17:45:00,63.4,61.9,29.50,East,92,0.0,0.0,95,0.00,BKN,,1.02,63.0,WeatherDisplay:10.37,2013-05-19 22:45:00,
2013-05-19 17:50:00,63.4,61.9,29.51,SE,143,1.2,1.2,95,0.00,BKN,,1.02,67.0,WeatherDisplay:10.37,2013-05-19 22:50:00,
2013-05-19 17:55:00,63.6,62.4,29.53,South,169,4.0,4.0,96,0.00,BKN,,1.02,35.0,WeatherDisplay:10.37,2013-05-19 22:55:00,
2013-05-19 18:00:00,63.8,62.6,29.54,SE,144,6.9,6.9,96,0.00,BKN,,1.02,49.0,WeatherDisplay:10.37,2013-05-19 23:00:00,
2013-05-19 18:05:00,63.8,62.3,29.54,West,278,5.8,5.8,95,0.00,BKN,,1.02,83.0,WeatherDisplay:10.37,2013-05-19 23:05:00,
2013-05-19 18:10:00,63.9,62.4,29.51,SSE,159,1.2,1.2,95,0.00,BKN,,1.02,123.0,WeatherDisplay:10.37,2013-05-19 23:10:00,
2013-05-19 18:15:00,64.0,62.5,29.50,SE,128,1.2,1.2,95,0.00,BKN,,1.02,149.0,WeatherDisplay:10.37,2013-05-19 23:15:00,
2013-05-19 18:20:00,64.3,63.1,29.50,West,279,2.3,2.3,96,0.00,BKN,,1.02,160.0,WeatherDisplay:10.37,2013-05-19 23:20:00,
2013-05-19 18:25:00,64.7,63.8,29.50,SSE,158,3.5,3.5,97,0.00,BKN,,1.02,149.0,WeatherDisplay:10.37,2013-05-19 23:25:00,
2013-05-19 18:30:00,65.3,64.4,29.51,WSW,256,3.5,3.5,97,0.00,BKN,,1.02,139.0,WeatherDisplay:10.37,2013-05-19 23:30:00,
2013-05-19 18:35:00,65.9,65.0,29.51,South,169,4.6,4.6,97,0.00,BKN,,1.02,120.0,WeatherDisplay:10.37,2013-05-19 23:35:00,
2013-05-19 18:40:00,66.2,64.7,29.51,SE,137,1.2,0.0,95,0.00,BKN,,1.02,105.0,WeatherDisplay:10.37,2013-05-19 23:40:00,
2013-05-19 18:45:00,66.4,64.9,29.50,South,178,2.3,2.3,95,0.00,BKN,,1.02,97.0,WeatherDisplay:10.37,2013-05-19 23:45:00,
2013-05-19 18:50:00,66.6,64.8,29.51,ESE,114,3.5,3.5,94,0.00,BKN,,1.02,90.0,WeatherDisplay:10.37,2013-05-19 23:50:00,
2013-05-19 18:55:00,66.7,64.6,29.52,South,169,4.0,4.0,93,0.00,BKN,,1.02,83.0,WeatherDisplay:10.37,2013-05-19 23:55:00,
2013-05-19 19:00:00,66.8,64.4,29.53,SE,126,1.2,0.0,92,0.00,BKN,,1.02,72.0,WeatherDisplay:10.37,2013-05-20 00:00:00,
2013-05-19 19:05:00,66.9,64.5,29.53,SE,137,2.3,2.3,92,0.00,SCT,,1.02,47.0,WeatherDisplay:10.37,2013-05-20 00:05:00,
2013-05-19 19:10:00,67.0,64.6,29.54,South,169,1.2,1.2,92,0.00,SCT,,1.02,40.0,WeatherDisplay:10.37,2013-05-20 00:10:00,
2013-05-19 19:15:00,67.0,64.3,29.55,South,169,1.2,0.0,91,0.00,SCT,,1.02,44.0,WeatherDisplay:10.37,2013-05-20 00:15:00,
2013-05-19 19:20:00,67.1,64.4,29.56,ENE,59,0.0,0.0,91,0.00,SCT,,1.02,81.0,WeatherDisplay:10.37,2013-05-20 00:20:00,
2013-05-19 19:25:00,67.1,64.4,29.57,ENE,59,0.0,0.0,91,0.00,SCT,,1.02,77.0,WeatherDisplay:10.37,2013-05-20 00:25:00,
2013-05-19 19:30:00,67.1,64.4,29.57,ENE,59,0.0,0.0,91,0.00,SCT,,1.02,83.0,WeatherDisplay:10.37,2013-05-20 00:30:00,
2013-05-19 19:35:00,67.3,64.6,29.57,ENE,59,0.0,0.0,91,0.00,SCT,,1.02,79.0,WeatherDisplay:10.37,2013-05-20 00:35:00,
2013-05-19 19:40:00,67.6,64.9,29.57,West,281,5.8,5.8,91,0.00,SCT,,1.02,69.0,WeatherDisplay:10.37,2013-05-20 00:40:00,
2013-05-19 19:45:00,67.7,64.7,29.57,NW,314,2.0,2.0,90,0.00,SCT,,1.02,77.0,WeatherDisplay:10.37,2013-05-20 00:45:00,
2013-05-19 19:50:00,67.9,65.2,29.57,North,355,3.5,3.5,91,0.00,SCT,,1.02,76.0,WeatherDisplay:10.37,2013-05-20 00:50:00,
2013-05-19 19:55:00,67.9,64.9,29.57,NE,52,5.0,5.0,90,0.00,SCT,,1.02,69.0,WeatherDisplay:10.37,2013-05-20 00:55:00,
2013-05-19 20:00:00,67.9,64.9,29.56,NE,56,2.3,2.3,90,0.00,SCT,,1.02,58.0,WeatherDisplay:10.37,2013-05-20 01:00:00,
2013-05-19 20:05:00,67.9,64.9,29.56,NE,55,2.3,2.3,90,0.00,SCT,,1.02,44.0,WeatherDisplay:10.37,2013-05-20 01:05:00,
2013-05-19 20:10:00,67.8,64.4,29.56,East,101,1.2,0.0,89,0.00,SCT,,1.02,28.0,WeatherDisplay:10.37,2013-05-20 01:10:00,
2013-05-19 20:15:00,67.7,64.3,29.56,East,101,0.0,0.0,89,0.00,SCT,,1.02,16.0,WeatherDisplay:10.37,2013-05-20 01:15:00,
2013-05-19 20:20:00,67.5,64.5,29.56,East,101,1.2,1.2,90,0.00,SCT,,1.02,9.0,WeatherDisplay:10.37,2013-05-20 01:20:00,
2013-05-19 20:25:00,67.3,63.9,29.56,East,101,0.0,0.0,89,0.00,SCT,,1.02,5.0,WeatherDisplay:10.37,2013-05-20 01:25:00,
2013-05-19 20:30:00,67.0,64.0,29.57,East,90,0.0,0.0,90,0.00,SCT,,1.02,0.0,WeatherDisplay:10.37,2013-05-20 01:30:00,
2013-05-19 20:35:00,66.7,63.7,29.57,East,90,0.0,0.0,90,0.00,SCT,,1.02,0.0,WeatherDisplay:10.37,2013-05-20 01:35:00,
2013-05-19 20:40:00,66.5,63.5,29.57,East,90,0.0,0.0,90,0.00,SCT,,1.02,0.0,WeatherDisplay:10.37,2013-05-20 01:40:00,
2013-05-19 20:45:00,66.2,63.5,29.57,East,90,0.0,0.0,91,0.00,SCT,,1.02,0.0,WeatherDisplay:10.37,2013-05-20 01:45:00,
2013-05-19 20:50:00,66.0,63.3,29.58,East,90,1.0,1.0,91,0.00,SCT,,1.02,0.0,WeatherDisplay:10.37,2013-05-20 01:50:00,
2013-05-19 20:55:00,65.8,63.1,29.58,East,90,1.2,1.2,91,0.00,SCT,,1.02,0.0,WeatherDisplay:10.37,2013-05-20 01:55:00,
2013-05-19 21:00:00,65.8,63.1,29.58,East,90,0.0,0.0,91,0.00,SCT,,1.02,0.0,WeatherDisplay:10.37,2013-05-20 02:00:00,
2013-05-19 21:05:00,65.7,63.0,29.58,East,90,0.0,0.0,91,0.00,SCT,,1.02,0.0,WeatherDisplay:10.37,2013-05-20 02:05:00,
2013-05-19 21:10:00,65.4,62.7,29.58,East,90,0.0,0.0,91,0.00,SCT,,1.02,0.0,WeatherDisplay:10.37,2013-05-20 02:10:00,
2013-05-19 21:15:00,65.2,62.8,29.58,East,90,1.2,1.2,92,0.00,SCT,,1.02,0.0,WeatherDisplay:10.37,2013-05-20 02:15:00,
2013-05-19 21:20:00,65.1,62.7,29.59,SE,138,1.2,1.2,92,0.00,SCT,,1.02,0.0,WeatherDisplay:10.37,2013-05-20 02:20:00,
2013-05-19 21:26:00,65.0,62.6,29.59,SE,138,1.2,1.2,92,0.00,SCT,,1.02,0.0,WeatherDisplay:10.37,2013-05-20 02:26:00,
2013-05-19 21:31:00,64.9,62.5,29.59,SE,138,1.2,1.2,92,0.00,SCT,,1.02,0.0,WeatherDisplay:10.37,2013-05-20 02:31:00,
2013-05-19 21:36:00,64.7,62.6,29.59,SE,138,0.0,0.0,93,0.00,SCT,,1.02,0.0,WeatherDisplay:10.37,2013-05-20 02:36:00,
2013-05-19 21:41:00,64.5,62.4,29.60,SE,137,3.5,3.5,93,0.00,SCT,,1.02,0.0,WeatherDisplay:10.37,2013-05-20 02:41:00,
2013-05-19 21:46:00,64.4,62.3,29.59,SE,137,1.2,1.2,93,0.00,SCT,,1.02,0.0,WeatherDisplay:10.37,2013-05-20 02:46:00,
2013-05-19 21:51:00,64.2,62.1,29.60,SE,137,1.2,0.0,93,0.00,SCT,,1.02,0.0,WeatherDisplay:10.37,2013-05-20 02:51:00,
2013-05-19 21:56:00,64.0,62.2,29.60,West,281,3.5,3.5,94,0.00,SCT,,1.02,0.0,WeatherDisplay:10.37,2013-05-20 02:56:00,
2013-05-19 22:01:00,63.9,62.1,29.60,NNW,336,1.2,0.0,94,0.00,SCT,,1.02,0.0,WeatherDisplay:10.37,2013-05-20 03:01:00,
2013-05-19 22:06:00,63.8,62.0,29.60,NNW,333,0.0,0.0,94,0.00,SCT,,1.02,0.0,WeatherDisplay:10.37,2013-05-20 03:06:00,
2013-05-19 22:11:00,63.8,62.0,29.61,NW,317,4.6,4.6,94,0.00,SCT,,1.02,0.0,WeatherDisplay:10.37,2013-05-20 03:11:00,
2013-05-19 22:16:00,63.8,62.0,29.61,WNW,289,3.5,3.5,94,0.00,SCT,,1.02,0.0,WeatherDisplay:10.37,2013-05-20 03:16:00,
2013-05-19 22:21:00,63.9,62.1,29.61,NW,309,11.5,11.5,94,0.00,SCT,,1.02,0.0,WeatherDisplay:10.37,2013-05-20 03:21:00,
2013-05-19 22:26:00,63.9,62.1,29.61,NW,319,2.3,2.3,94,0.00,SCT,,1.02,0.0,WeatherDisplay:10.37,2013-05-20 03:26:00,
2013-05-19 22:31:00,63.9,61.8,29.61,NNW,332,2.0,2.0,93,0.00,SCT,,1.02,0.0,WeatherDisplay:10.37,2013-05-20 03:31:00,
2013-05-19 22:36:00,63.8,61.7,29.61,NNW,329,1.2,1.2,93,0.00,SCT,,1.02,0.0,WeatherDisplay:10.37,2013-05-20 03:36:00,
2013-05-19 22:41:00,63.6,61.5,29.62,ENE,69,0.0,0.0,93,0.00,SCT,,1.02,0.0,WeatherDisplay:10.37,2013-05-20 03:41:00,
2013-05-19 22:46:00,63.5,61.4,29.62,ENE,59,0.0,0.6,93,0.00,SCT,,1.02,0.0,WeatherDisplay:10.37,2013-05-20 03:46:00,
2013-05-19 22:51:00,63.3,61.2,29.62,ENE,59,2.3,0.0,93,0.00,SCT,,1.02,0.0,WeatherDisplay:10.37,2013-05-20 03:51:00,
2013-05-19 22:56:00,63.1,61.0,29.62,ENE,59,0.0,0.0,93,0.00,SCT,,1.02,0.0,WeatherDisplay:10.37,2013-05-20 03:56:00,
2013-05-19 23:01:00,62.9,60.8,29.63,WNW,292,3.5,3.5,93,0.00,SCT,,1.02,0.0,WeatherDisplay:10.37,2013-05-20 04:01:00,
2013-05-19 23:06:00,62.7,60.9,29.63,NNE,22,1.2,0.0,94,0.00,SCT,,1.02,0.0,WeatherDisplay:10.37,2013-05-20 04:06:00,
2013-05-19 23:11:00,62.5,60.7,29.63,NNE,19,1.2,1.2,94,0.00,SCT,,1.02,0.0,WeatherDisplay:10.37,2013-05-20 04:11:00,
2013-05-19 23:16:00,62.5,60.7,29.64,NW,321,2.3,2.3,94,0.00,SCT,,1.02,0.0,WeatherDisplay:10.37,2013-05-20 04:16:00,
2013-05-19 23:21:00,62.3,60.8,29.65,West,269,3.5,3.5,95,0.00,SCT,,1.02,0.0,WeatherDisplay:10.37,2013-05-20 04:21:00,
2013-05-19 23:26:00,62.2,60.8,29.66,West,263,4.0,4.0,95,0.00,SCT,,1.02,0.0,WeatherDisplay:10.37,2013-05-20 04:26:00,
2013-05-19 23:31:00,62.1,60.7,29.66,WNW,284,4.6,4.6,95,0.00,SCT,,1.02,0.0,WeatherDisplay:10.37,2013-05-20 04:31:00,
2013-05-19 23:36:00,62.0,60.3,29.67,West,273,8.1,8.1,94,0.00,SCT,,1.02,0.0,WeatherDisplay:10.37,2013-05-20 04:36:00,
2013-05-19 23:41:00,61.8,60.1,29.67,WNW,282,6.0,6.0,94,0.00,SCT,,1.02,0.0,WeatherDisplay:10.37,2013-05-20 04:41:00,
2013-05-19 23:46:00,61.6,59.6,29.67,West,271,3.5,3.5,93,0.00,SCT,,1.02,0.0,WeatherDisplay:10.37,2013-05-20 04:46:00,
2013-05-19 23:51:00,61.4,59.4,29.67,West,271,2.3,2.3,93,0.00,SCT,,1.02,0.0,WeatherDisplay:10.37,2013-05-20 04:51:00,
2013-05-19 23:56:00,61.3,59.0,29.67,WNW,285,3.5,3.5,92,0.00,SCT,,1.02,0.0,WeatherDisplay:10.37,2013-05-20 04:56:00,